createdAt,value
2019-05-04T00:00:38.591Z,8.68
2019-05-04T00:01:38.570Z,8.67
2019-05-04T00:02:38.553Z,8.68
2019-05-04T00:03:38.532Z,8.77
2019-05-04T00:04:38.516Z,8.70
2019-05-04T00:05:38.495Z,8.72
2019-05-04T00:06:48.164Z,8.72
2019-05-04T00:07:38.450Z,8.63
2019-05-04T00:08:38.432Z,8.71
2019-05-04T00:09:38.411Z,8.77
2019-05-04T00:10:38.394Z,8.63
2019-05-04T00:11:38.370Z,8.68
2019-05-04T00:12:38.350Z,8.77
2019-05-04T00:13:38.330Z,8.80
2019-05-04T00:14:38.318Z,8.75
2019-05-04T00:15:38.290Z,8.77
2019-05-04T00:16:38.270Z,8.70
2019-05-04T00:17:38.249Z,8.77
2019-05-04T00:18:38.233Z,8.68
2019-05-04T00:19:38.217Z,8.68
2019-05-04T00:20:50.397Z,8.68
2019-05-04T00:21:38.170Z,8.70
2019-05-04T00:22:38.158Z,8.72
2019-05-04T00:23:38.130Z,8.56
2019-05-04T00:24:38.110Z,8.62
2019-05-04T00:25:38.161Z,8.56
2019-05-04T00:26:38.069Z,8.65
2019-05-04T00:27:38.049Z,8.62
2019-05-04T00:28:38.038Z,8.57
2019-05-04T00:29:38.011Z,8.56
2019-05-04T00:30:37.990Z,8.52
2019-05-04T00:31:37.981Z,8.52
2019-05-04T00:32:37.951Z,8.56
2019-05-04T00:33:37.930Z,8.59
2019-05-04T00:34:37.915Z,8.57
2019-05-04T00:35:37.890Z,8.49
2019-05-04T00:36:37.878Z,8.39
2019-05-04T00:37:37.852Z,8.46
2019-05-04T00:38:37.845Z,8.46
2019-05-04T00:39:37.811Z,8.46
2019-05-04T00:40:37.794Z,8.41
2019-05-04T00:41:37.769Z,8.44
2019-05-04T00:42:37.750Z,8.57
2019-05-04T00:43:37.728Z,8.56
2019-05-04T00:44:37.721Z,8.57
2019-05-04T00:45:37.690Z,8.55
2019-05-04T00:46:37.701Z,8.55
2019-05-04T00:47:37.650Z,8.50
2019-05-04T00:48:37.628Z,8.68
2019-05-04T00:49:37.611Z,8.57
2019-05-04T00:50:37.594Z,8.59
2019-05-04T00:51:37.566Z,8.49
2019-05-04T00:52:37.556Z,8.50
2019-05-04T00:53:37.526Z,8.55
2019-05-04T00:54:37.509Z,8.49
2019-05-04T00:55:37.503Z,8.56
2019-05-04T00:56:37.469Z,8.49
2019-05-04T00:57:37.447Z,8.52
2019-05-04T00:58:37.427Z,8.49
2019-05-04T00:59:37.414Z,8.55
2019-05-04T01:00:37.385Z,8.47
2019-05-04T01:01:37.366Z,8.49
2019-05-04T01:02:37.349Z,8.42
2019-05-04T01:03:37.327Z,8.46
2019-05-04T01:04:37.311Z,8.44
2019-05-04T01:05:37.286Z,8.49
2019-05-04T01:06:37.266Z,8.37
2019-05-04T01:07:37.248Z,8.37
2019-05-04T01:08:37.226Z,8.38
2019-05-04T01:09:37.203Z,8.37
2019-05-04T01:10:37.190Z,8.38
2019-05-04T01:11:37.167Z,8.42
2019-05-04T01:12:37.146Z,8.44
2019-05-04T01:13:37.123Z,8.46
2019-05-04T01:14:37.104Z,8.53
2019-05-04T01:15:37.081Z,8.37
2019-05-04T01:16:37.068Z,8.34
2019-05-04T01:17:37.042Z,8.34
2019-05-04T01:18:37.034Z,8.37
2019-05-04T01:19:37.003Z,8.29
2019-05-04T01:20:36.983Z,8.29
2019-05-04T01:21:36.965Z,8.31
2019-05-04T01:22:36.948Z,8.23
2019-05-04T01:23:36.926Z,8.37
2019-05-04T01:24:36.905Z,8.37
2019-05-04T01:25:36.887Z,8.44
2019-05-04T01:26:36.861Z,8.47
2019-05-04T01:27:36.845Z,8.41
2019-05-04T01:28:36.821Z,8.55
2019-05-04T01:29:36.801Z,8.55
2019-05-04T01:30:36.785Z,8.47
2019-05-04T01:31:36.772Z,8.52
2019-05-04T01:32:38.925Z,8.49
2019-05-04T01:33:36.721Z,8.50
2019-05-04T01:34:36.703Z,8.52
2019-05-04T01:35:36.685Z,8.47
2019-05-04T01:36:36.670Z,8.39
2019-05-04T01:37:36.652Z,8.50
2019-05-04T01:38:36.622Z,8.46
2019-05-04T01:39:36.606Z,8.41
2019-05-04T01:40:36.593Z,8.44
2019-05-04T01:41:36.560Z,8.38
2019-05-04T01:42:36.547Z,8.39
2019-05-04T01:43:36.524Z,8.28
2019-05-04T01:44:36.501Z,8.23
2019-05-04T01:45:36.484Z,8.28
2019-05-04T01:46:36.463Z,8.34
2019-05-04T01:47:36.443Z,8.17
2019-05-04T01:48:36.421Z,8.20
2019-05-04T01:49:36.401Z,8.19
2019-05-04T01:50:37.724Z,8.19
2019-05-04T01:51:36.358Z,8.17
2019-05-04T01:52:36.343Z,8.16
2019-05-04T01:53:36.326Z,8.26
2019-05-04T01:54:36.296Z,8.26
2019-05-04T01:55:36.279Z,8.37
2019-05-04T01:56:36.257Z,8.31
2019-05-04T01:57:36.236Z,8.24
2019-05-04T01:58:36.216Z,8.16
2019-05-04T01:59:36.202Z,8.20
2019-05-04T02:00:36.176Z,8.17
2019-05-04T02:01:36.154Z,8.21
2019-05-04T02:02:36.136Z,8.21
2019-05-04T02:03:36.120Z,8.29
2019-05-04T02:04:36.102Z,8.24
2019-05-04T02:05:36.074Z,8.31
2019-05-04T02:06:36.053Z,8.29
2019-05-04T02:07:44.567Z,8.34
2019-05-04T02:08:36.013Z,8.38
2019-05-04T02:09:35.992Z,8.34
2019-05-04T02:10:35.970Z,8.23
2019-05-04T02:11:35.952Z,8.28
2019-05-04T02:12:35.940Z,8.23
2019-05-04T02:13:35.911Z,8.21
2019-05-04T02:14:35.897Z,8.17
2019-05-04T02:15:35.875Z,8.20
2019-05-04T02:16:35.859Z,8.19
2019-05-04T02:17:35.833Z,8.10
2019-05-04T02:18:35.809Z,8.09
2019-05-04T02:19:35.795Z,8.05
2019-05-04T02:20:35.778Z,8.14
2019-05-04T02:21:35.761Z,8.13
2019-05-04T02:22:35.728Z,8.19
2019-05-04T02:23:35.712Z,8.16
2019-05-04T02:24:35.692Z,8.20
2019-05-04T02:25:35.666Z,8.14
2019-05-04T02:26:35.645Z,8.24
2019-05-04T02:27:35.627Z,8.31
2019-05-04T02:28:35.608Z,8.37
2019-05-04T02:29:35.587Z,8.37
2019-05-04T02:30:36.904Z,8.21
2019-05-04T02:31:36.426Z,8.23
2019-05-04T02:32:36.292Z,8.34
2019-05-04T02:33:35.888Z,8.23
2019-05-04T02:34:36.758Z,8.23
2019-05-04T02:35:35.961Z,8.32
2019-05-04T02:36:35.700Z,8.32
2019-05-04T02:37:36.853Z,8.26
2019-05-04T02:38:36.310Z,8.26
2019-05-04T02:39:36.509Z,8.32
2019-05-04T02:40:45.697Z,8.29
2019-05-04T02:41:37.156Z,8.31
2019-05-04T02:42:35.558Z,8.29
2019-05-04T02:43:36.255Z,8.24
2019-05-04T02:44:36.214Z,8.29
2019-05-04T02:45:36.145Z,8.21
2019-05-04T02:46:35.922Z,8.20
2019-05-04T02:47:36.036Z,8.17
2019-05-04T02:48:35.466Z,8.13
2019-05-04T02:49:36.182Z,8.16
2019-05-04T02:50:35.747Z,8.13
2019-05-04T02:51:35.688Z,8.14
2019-05-04T02:52:35.578Z,8.05
2019-05-04T02:53:36.119Z,8.04
2019-05-04T02:54:36.156Z,8.12
2019-05-04T02:55:35.873Z,8.06
2019-05-04T02:56:35.055Z,7.99
2019-05-04T02:57:35.679Z,8.02
2019-05-04T02:58:38.306Z,8.05
2019-05-04T02:59:36.010Z,8.04
2019-05-04T03:00:36.332Z,8.10
2019-05-04T03:01:35.686Z,8.14
2019-05-04T03:02:35.830Z,8.14
2019-05-04T03:03:35.614Z,8.10
2019-05-04T03:04:35.931Z,8.04
2019-05-04T03:05:36.076Z,8.06
2019-05-04T03:06:35.931Z,8.09
2019-05-04T03:07:35.584Z,8.05
2019-05-04T03:08:38.540Z,8.13
2019-05-04T03:09:35.648Z,8.10
2019-05-04T03:10:36.362Z,7.99
2019-05-04T03:11:36.020Z,7.95
2019-05-04T03:12:35.864Z,7.94
2019-05-04T03:13:35.689Z,7.98
2019-05-04T03:14:36.506Z,7.98
2019-05-04T03:15:36.593Z,7.98
2019-05-04T03:16:42.086Z,7.95
2019-05-04T03:17:35.480Z,7.94
2019-05-04T03:18:35.437Z,7.96
2019-05-04T03:19:35.851Z,7.99
2019-05-04T03:20:35.886Z,7.96
2019-05-04T03:21:35.898Z,7.96
2019-05-04T03:22:35.866Z,7.92
2019-05-04T03:23:35.920Z,7.84
2019-05-04T03:24:35.735Z,7.80
2019-05-04T03:25:35.475Z,7.87
2019-05-04T03:26:36.196Z,7.83
2019-05-04T03:27:35.723Z,7.94
2019-05-04T03:28:35.943Z,7.91
2019-05-04T03:29:36.785Z,7.83
2019-05-04T03:30:38.817Z,7.84
2019-05-04T03:31:38.890Z,7.84
2019-05-04T03:32:37.874Z,7.84
2019-05-04T03:33:38.308Z,7.94
2019-05-04T03:34:53.893Z,7.83
2019-05-04T03:35:44.549Z,7.83
2019-05-04T03:36:40.630Z,7.81
2019-05-04T03:37:35.709Z,7.86
2019-05-04T03:38:48.650Z,7.78
2019-05-04T03:39:36.240Z,7.86
2019-05-04T03:40:36.495Z,7.88
2019-05-04T03:41:35.049Z,7.98
2019-05-04T03:42:35.411Z,7.95
2019-05-04T03:43:36.286Z,7.91
2019-05-04T03:44:36.445Z,7.83
2019-05-04T03:45:35.109Z,7.77
2019-05-04T03:46:36.184Z,7.77
2019-05-04T03:47:35.757Z,7.73
2019-05-04T03:48:36.176Z,7.68
2019-05-04T03:49:36.292Z,7.61
2019-05-04T03:50:35.500Z,7.61
2019-05-04T03:51:35.119Z,7.68
2019-05-04T03:52:36.364Z,7.64
2019-05-04T03:53:36.290Z,7.62
2019-05-04T03:54:36.368Z,7.66
2019-05-04T03:55:35.252Z,7.69
2019-05-04T03:56:35.173Z,7.76
2019-05-04T03:57:35.750Z,7.69
2019-05-04T03:58:36.131Z,7.71
2019-05-04T03:59:35.636Z,7.80
2019-05-04T04:00:36.320Z,7.81
2019-05-04T04:01:35.665Z,7.81
2019-05-04T04:02:37.252Z,7.74
2019-05-04T04:03:35.931Z,7.76
2019-05-04T04:04:36.246Z,7.69
2019-05-04T04:05:36.071Z,7.68
2019-05-04T04:06:35.928Z,7.66
2019-05-04T04:07:35.870Z,7.71
2019-05-04T04:08:35.681Z,7.66
2019-05-04T04:09:33.537Z,7.69
2019-05-04T04:10:36.220Z,7.77
2019-05-04T04:11:35.769Z,7.74
2019-05-04T04:12:36.229Z,7.64
2019-05-04T04:13:36.104Z,7.74
2019-05-04T04:14:36.029Z,7.71
2019-05-04T04:15:36.241Z,7.77
2019-05-04T04:16:33.404Z,7.68
2019-05-04T04:17:35.716Z,7.77
2019-05-04T04:18:35.713Z,7.71
2019-05-04T04:19:35.912Z,7.71
2019-05-04T04:20:35.642Z,7.69
2019-05-04T04:21:36.198Z,7.60
2019-05-04T04:22:36.046Z,7.68
2019-05-04T04:23:35.975Z,7.69
2019-05-04T04:24:35.661Z,7.74
2019-05-04T04:25:35.156Z,7.66
2019-05-04T04:26:35.825Z,7.76
2019-05-04T04:27:35.770Z,7.78
2019-05-04T04:28:35.599Z,7.68
2019-05-04T04:29:35.687Z,7.73
2019-05-04T04:30:36.130Z,7.71
2019-05-04T04:31:35.747Z,7.76
2019-05-04T04:32:35.772Z,7.80
2019-05-04T04:33:48.568Z,7.77
2019-05-04T04:34:35.463Z,7.86
2019-05-04T04:35:35.543Z,7.81
2019-05-04T04:36:38.134Z,7.78
2019-05-04T04:37:35.663Z,7.74
2019-05-04T04:38:35.526Z,7.78
2019-05-04T04:39:38.289Z,7.80
2019-05-04T04:40:35.425Z,7.86
2019-05-04T04:41:35.533Z,7.68
2019-05-04T04:42:35.619Z,7.69
2019-05-04T04:43:36.099Z,7.74
2019-05-04T04:44:32.816Z,7.81
2019-05-04T04:45:35.601Z,7.73
2019-05-04T04:46:35.436Z,7.81
2019-05-04T04:47:35.473Z,7.71
2019-05-04T04:48:35.906Z,7.71
2019-05-04T04:49:32.716Z,7.69
2019-05-04T04:50:32.698Z,7.66
2019-05-04T04:51:32.679Z,7.77
2019-05-04T04:52:32.658Z,7.84
2019-05-04T04:53:32.632Z,7.74
2019-05-04T04:54:35.050Z,7.76
2019-05-04T04:55:32.591Z,7.69
2019-05-04T04:56:35.148Z,7.62
2019-05-04T04:57:35.354Z,7.64
2019-05-04T04:58:34.909Z,7.66
2019-05-04T04:59:32.506Z,7.68
2019-05-04T05:00:34.889Z,7.69
2019-05-04T05:01:32.466Z,7.62
2019-05-04T05:02:43.153Z,7.64
2019-05-04T05:03:35.126Z,7.68
2019-05-04T05:04:34.928Z,7.62
2019-05-04T05:05:34.865Z,7.71
2019-05-04T05:06:34.853Z,7.68
2019-05-04T05:07:35.176Z,7.69
2019-05-04T05:08:32.326Z,7.71
2019-05-04T05:09:42.553Z,7.66
2019-05-04T05:10:34.506Z,7.81
2019-05-04T05:11:34.690Z,7.71
2019-05-04T05:12:34.674Z,7.68
2019-05-04T05:13:34.067Z,7.76
2019-05-04T05:14:32.200Z,7.77
2019-05-04T05:15:34.065Z,7.71
2019-05-04T05:16:34.167Z,7.74
2019-05-04T05:17:34.202Z,7.73
2019-05-04T05:18:32.112Z,7.61
2019-05-04T05:19:32.091Z,7.66
2019-05-04T05:20:34.184Z,7.64
2019-05-04T05:21:34.293Z,7.61
2019-05-04T05:22:32.030Z,7.62
2019-05-04T05:23:32.009Z,7.61
2019-05-04T05:24:31.993Z,7.66
2019-05-04T05:25:31.971Z,7.58
2019-05-04T05:26:31.954Z,7.57
2019-05-04T05:27:31.929Z,7.62
2019-05-04T05:28:31.913Z,7.66
2019-05-04T05:29:31.887Z,7.62
2019-05-04T05:30:31.867Z,7.76
2019-05-04T05:31:31.849Z,7.66
2019-05-04T05:32:31.828Z,7.77
2019-05-04T05:33:31.807Z,7.77
2019-05-04T05:34:31.790Z,7.84
2019-05-04T05:35:31.779Z,7.78
2019-05-04T05:36:31.748Z,7.81
2019-05-04T05:37:31.724Z,7.84
2019-05-04T05:38:31.708Z,7.84
2019-05-04T05:39:31.684Z,7.84
2019-05-04T05:40:31.661Z,7.81
2019-05-04T05:41:31.639Z,7.78
2019-05-04T05:42:37.691Z,7.84
2019-05-04T05:43:31.599Z,7.78
2019-05-04T05:44:38.023Z,7.77
2019-05-04T05:45:31.563Z,7.81
2019-05-04T05:46:34.294Z,7.78
2019-05-04T05:47:31.521Z,7.77
2019-05-04T05:48:34.843Z,7.88
2019-05-04T05:49:31.477Z,7.86
2019-05-04T05:50:34.489Z,7.96
2019-05-04T05:51:31.434Z,7.95
2019-05-04T05:52:39.476Z,7.86
2019-05-04T05:53:31.401Z,7.92
2019-05-04T05:54:38.811Z,7.83
2019-05-04T05:55:31.357Z,7.95
2019-05-04T05:56:38.411Z,7.98
2019-05-04T05:57:31.320Z,7.96
2019-05-04T05:58:36.049Z,7.99
2019-05-04T05:59:31.281Z,8.04
2019-05-04T06:00:31.256Z,8.05
2019-05-04T06:01:31.238Z,8.06
2019-05-04T06:02:31.218Z,8.10
2019-05-04T06:03:32.585Z,8.19
2019-05-04T06:04:31.184Z,8.12
2019-05-04T06:05:32.553Z,8.19
2019-05-04T06:06:31.136Z,8.24
2019-05-04T06:07:31.110Z,8.19
2019-05-04T06:08:31.097Z,8.24
2019-05-04T06:09:31.073Z,8.20
2019-05-04T06:10:31.049Z,8.21
2019-05-04T06:11:37.020Z,8.37
2019-05-04T06:12:31.016Z,8.39
2019-05-04T06:13:35.407Z,8.34
2019-05-04T06:14:30.970Z,8.42
2019-05-04T06:15:34.843Z,8.47
2019-05-04T06:16:30.935Z,8.46
2019-05-04T06:17:34.652Z,8.41
2019-05-04T06:18:33.762Z,8.32
2019-05-04T06:19:35.375Z,8.44
2019-05-04T06:20:30.852Z,8.44
2019-05-04T06:21:37.022Z,8.47
2019-05-04T06:22:30.808Z,8.41
2019-05-04T06:23:36.823Z,8.62
2019-05-04T06:24:30.771Z,8.56
2019-05-04T06:25:37.671Z,8.53
2019-05-04T06:26:30.737Z,8.59
2019-05-04T06:27:30.713Z,8.47
2019-05-04T06:28:30.691Z,8.63
2019-05-04T06:29:30.669Z,8.60
2019-05-04T06:30:30.651Z,8.67
2019-05-04T06:31:30.631Z,8.80
2019-05-04T06:32:30.615Z,8.88
2019-05-04T06:33:30.590Z,8.99
2019-05-04T06:34:31.181Z,8.98
2019-05-04T06:35:30.563Z,9.08
2019-05-04T06:36:30.540Z,9.01
2019-05-04T06:37:30.511Z,9.11
2019-05-04T06:38:30.491Z,9.09
2019-05-04T06:39:30.477Z,9.18
2019-05-04T06:40:36.606Z,9.18
2019-05-04T06:41:33.205Z,9.23
2019-05-04T06:42:30.423Z,9.30
2019-05-04T06:43:52.529Z,9.24
2019-05-04T06:44:30.373Z,9.34
2019-05-04T06:45:30.357Z,9.26
2019-05-04T06:46:32.077Z,9.27
2019-05-04T06:47:30.339Z,9.33
2019-05-04T06:48:31.329Z,9.44
2019-05-04T06:49:30.278Z,9.40
2019-05-04T06:50:30.277Z,9.24
2019-05-04T06:51:30.246Z,9.30
2019-05-04T06:52:30.605Z,9.33
2019-05-04T06:53:36.080Z,9.40
2019-05-04T06:54:32.113Z,9.44
2019-05-04T06:55:30.163Z,9.30
2019-05-04T06:56:38.876Z,9.42
2019-05-04T06:57:40.602Z,9.44
2019-05-04T06:58:34.639Z,9.33
2019-05-04T06:59:30.629Z,9.41
2019-05-04T07:00:31.137Z,9.29
2019-05-04T07:01:30.044Z,9.41
2019-05-04T07:02:34.673Z,9.52
2019-05-04T07:03:30.005Z,9.60
2019-05-04T07:04:35.154Z,9.77
2019-05-04T07:05:29.977Z,9.84
2019-05-04T07:06:34.907Z,9.73
2019-05-04T07:07:29.932Z,9.90
2019-05-04T07:08:32.496Z,10.02
2019-05-04T07:09:42.863Z,10.12
2019-05-04T07:10:29.870Z,10.24
2019-05-04T07:11:32.437Z,10.26
2019-05-04T07:12:30.171Z,10.21
2019-05-04T07:13:29.817Z,10.23
2019-05-04T07:14:37.561Z,10.10
2019-05-04T07:15:29.775Z,10.12
2019-05-04T07:16:34.925Z,10.23
2019-05-04T07:17:29.739Z,10.23
2019-05-04T07:18:34.673Z,10.09
2019-05-04T07:19:29.709Z,10.06
2019-05-04T07:20:32.103Z,10.23
2019-05-04T07:21:29.666Z,10.20
2019-05-04T07:22:39.403Z,10.23
2019-05-04T07:23:29.634Z,10.26
2019-05-04T07:24:34.459Z,10.38
2019-05-04T07:25:29.594Z,10.41
2019-05-04T07:26:34.606Z,10.28
2019-05-04T07:27:29.554Z,10.34
2019-05-04T07:28:38.138Z,10.42
2019-05-04T07:29:29.520Z,10.49
2019-05-04T07:30:31.038Z,10.75
2019-05-04T07:31:29.488Z,10.67
2019-05-04T07:32:34.065Z,10.91
2019-05-04T07:33:29.447Z,11.01
2019-05-04T07:34:35.474Z,11.08
2019-05-04T07:35:32.036Z,11.23
2019-05-04T07:36:29.406Z,11.31
2019-05-04T07:37:42.684Z,11.40
2019-05-04T07:38:29.370Z,11.43
2019-05-04T07:39:29.354Z,11.55
2019-05-04T07:40:33.226Z,11.62
2019-05-04T07:41:47.008Z,11.52
2019-05-04T07:42:30.983Z,11.54
2019-05-04T07:43:33.391Z,11.70
2019-05-04T07:44:29.288Z,11.88
2019-05-04T07:45:30.771Z,12.21
2019-05-04T07:46:29.252Z,12.48
2019-05-04T07:47:29.863Z,12.48
2019-05-04T07:48:29.235Z,12.48
2019-05-04T07:49:29.209Z,12.72
2019-05-04T07:50:29.195Z,13.14
2019-05-04T07:51:29.186Z,13.60
2019-05-04T07:52:29.177Z,13.78
2019-05-04T07:53:29.160Z,13.83
2019-05-04T07:54:29.796Z,13.88
2019-05-04T07:55:29.143Z,14.51
2019-05-04T07:56:29.132Z,14.74
2019-05-04T07:57:29.260Z,14.69
2019-05-04T07:58:29.115Z,15.51
2019-05-04T07:59:29.388Z,15.54
2019-05-04T08:00:29.079Z,16.32
2019-05-04T08:01:29.069Z,16.79
2019-05-04T08:02:29.059Z,16.97
2019-05-04T08:03:29.455Z,16.47
2019-05-04T08:04:29.042Z,15.87
2019-05-04T08:05:34.194Z,15.72
2019-05-04T08:06:29.024Z,15.33
2019-05-04T08:07:30.232Z,14.77
2019-05-04T08:08:29.002Z,14.22
2019-05-04T08:09:28.999Z,13.85
2019-05-04T08:10:30.390Z,13.46
2019-05-04T08:11:28.969Z,12.99
2019-05-04T08:12:39.229Z,12.30
2019-05-04T08:13:30.040Z,12.55
2019-05-04T08:14:28.930Z,12.18
2019-05-04T08:15:29.602Z,12.00
2019-05-04T08:16:28.907Z,11.93
2019-05-04T08:17:29.499Z,13.73
2019-05-04T08:18:28.925Z,13.23
2019-05-04T08:19:30.305Z,13.47
2019-05-04T08:20:28.881Z,14.21
2019-05-04T08:21:31.863Z,13.54
2019-05-04T08:22:28.836Z,14.59
2019-05-04T08:23:30.874Z,14.41
2019-05-04T08:24:31.239Z,14.12
2019-05-04T08:25:28.785Z,15.87
2019-05-04T08:26:29.931Z,16.97
2019-05-04T08:27:28.764Z,17.94
2019-05-04T08:28:28.766Z,18.68
2019-05-04T08:29:28.741Z,18.56
2019-05-04T08:30:30.662Z,17.50
2019-05-04T08:31:30.352Z,16.26
2019-05-04T08:32:28.711Z,15.58
2019-05-04T08:33:29.515Z,15.27
2019-05-04T08:34:28.694Z,14.83
2019-05-04T08:35:31.219Z,15.59
2019-05-04T08:36:28.667Z,16.08
2019-05-04T08:37:32.190Z,15.60
2019-05-04T08:38:28.651Z,14.89
2019-05-04T08:39:29.296Z,14.58
2019-05-04T08:40:28.624Z,14.37
2019-05-04T08:41:28.609Z,14.04
2019-05-04T08:42:30.871Z,13.85
2019-05-04T08:43:28.586Z,13.63
2019-05-04T08:44:29.482Z,13.29
2019-05-04T08:45:28.557Z,13.14
2019-05-04T08:46:29.980Z,12.71
2019-05-04T08:47:28.530Z,12.46
2019-05-04T08:48:29.312Z,12.30
2019-05-04T08:49:31.788Z,12.11
2019-05-04T08:50:28.490Z,11.95
2019-05-04T08:51:33.412Z,11.87
2019-05-04T08:52:28.460Z,13.64
2019-05-04T08:53:28.454Z,15.25
2019-05-04T08:54:29.428Z,16.42
2019-05-04T08:55:30.545Z,16.91
2019-05-04T08:56:28.425Z,17.54
2019-05-04T08:57:33.796Z,18.01
2019-05-04T08:58:29.273Z,18.96
2019-05-04T08:59:28.391Z,19.78
2019-05-04T09:00:33.529Z,20.18
2019-05-04T09:01:28.355Z,20.55
2019-05-04T09:02:30.533Z,20.67
2019-05-04T09:03:28.346Z,19.72
2019-05-04T09:04:29.447Z,18.33
2019-05-04T09:05:35.604Z,16.94
2019-05-04T09:06:31.629Z,16.10
2019-05-04T09:07:28.309Z,15.01
2019-05-04T09:08:28.286Z,14.73
2019-05-04T09:09:30.441Z,14.52
2019-05-04T09:10:28.316Z,14.71
2019-05-04T09:11:29.865Z,14.41
2019-05-04T09:12:37.069Z,14.55
2019-05-04T09:13:28.236Z,14.41
2019-05-04T09:14:33.027Z,16.05
2019-05-04T09:15:28.208Z,17.07
2019-05-04T09:16:33.559Z,17.83
2019-05-04T09:17:28.183Z,16.98
2019-05-04T09:18:29.383Z,16.34
2019-05-04T09:19:28.157Z,15.90
2019-05-04T09:20:28.903Z,16.36
2019-05-04T09:21:28.147Z,17.57
2019-05-04T09:22:29.870Z,17.99
2019-05-04T09:23:28.591Z,18.63
2019-05-04T09:24:28.105Z,19.26
2019-05-04T09:25:29.377Z,19.79
2019-05-04T09:26:28.075Z,20.53
2019-05-04T09:27:29.659Z,20.68
2019-05-04T09:28:28.053Z,20.89
2019-05-04T09:29:30.429Z,21.22
2019-05-04T09:30:28.031Z,21.60
2019-05-04T09:31:30.912Z,21.48
2019-05-04T09:32:32.863Z,21.23
2019-05-04T09:33:32.446Z,19.60
2019-05-04T09:34:32.019Z,18.41
2019-05-04T09:35:27.987Z,18.48
2019-05-04T09:36:31.018Z,18.48
2019-05-04T09:37:27.954Z,17.81
2019-05-04T09:38:32.348Z,17.86
2019-05-04T09:39:27.934Z,17.32
2019-05-04T09:40:27.923Z,16.76
2019-05-04T09:41:27.909Z,16.09
2019-05-04T09:42:43.929Z,17.31
2019-05-04T09:43:36.056Z,18.33
2019-05-04T09:44:27.880Z,19.23
2019-05-04T09:45:28.852Z,18.89
2019-05-04T09:46:27.853Z,17.79
2019-05-04T09:47:29.892Z,17.07
2019-05-04T09:48:27.829Z,17.47
2019-05-04T09:49:28.772Z,18.48
2019-05-04T09:50:27.801Z,19.07
2019-05-04T09:51:30.656Z,19.52
2019-05-04T09:52:27.778Z,20.07
2019-05-04T09:53:34.226Z,20.25
2019-05-04T09:54:27.752Z,20.50
2019-05-04T09:55:31.350Z,20.74
2019-05-04T09:56:27.745Z,21.25
2019-05-04T09:57:32.180Z,21.93
2019-05-04T09:58:30.194Z,21.96
2019-05-04T09:59:27.710Z,22.58
2019-05-04T10:00:30.442Z,22.31
2019-05-04T10:01:27.676Z,20.71
2019-05-04T10:02:27.652Z,19.52
2019-05-04T10:03:27.645Z,18.60
2019-05-04T10:04:27.639Z,17.93
2019-05-04T10:05:28.387Z,17.20
2019-05-04T10:06:30.412Z,17.78
2019-05-04T10:07:27.594Z,18.76
2019-05-04T10:08:27.579Z,19.38
2019-05-04T10:09:27.571Z,19.74
2019-05-04T10:10:27.563Z,19.42
2019-05-04T10:11:28.099Z,18.41
2019-05-04T10:12:27.529Z,17.83
2019-05-04T10:13:27.514Z,18.21
2019-05-04T10:14:27.505Z,17.91
2019-05-04T10:15:27.489Z,18.38
2019-05-04T10:16:30.387Z,18.70
2019-05-04T10:17:27.469Z,18.46
2019-05-04T10:18:27.449Z,19.30
2019-05-04T10:19:27.446Z,19.84
2019-05-04T10:20:27.424Z,20.12
2019-05-04T10:21:27.410Z,20.56
2019-05-04T10:22:27.398Z,20.74
2019-05-04T10:23:27.387Z,20.97
2019-05-04T10:24:27.374Z,21.14
2019-05-04T10:25:27.363Z,20.73
2019-05-04T10:26:27.355Z,20.15
2019-05-04T10:27:27.335Z,19.81
2019-05-04T10:28:27.328Z,19.35
2019-05-04T10:29:27.309Z,18.63
2019-05-04T10:30:27.297Z,18.21
2019-05-04T10:31:27.310Z,18.51
2019-05-04T10:32:27.271Z,18.56
2019-05-04T10:33:27.254Z,18.27
2019-05-04T10:34:27.244Z,17.94
2019-05-04T10:35:27.238Z,17.65
2019-05-04T10:36:27.218Z,17.14
2019-05-04T10:37:27.204Z,17.34
2019-05-04T10:38:27.194Z,17.57
2019-05-04T10:39:27.191Z,17.52
2019-05-04T10:40:27.174Z,17.45
2019-05-04T10:41:27.160Z,17.71
2019-05-04T10:42:27.137Z,18.02
2019-05-04T10:43:27.134Z,18.06
2019-05-04T10:44:27.112Z,17.93
2019-05-04T10:45:27.113Z,18.01
2019-05-04T10:46:27.091Z,17.75
2019-05-04T10:47:27.083Z,17.65
2019-05-04T10:49:27.045Z,16.72
2019-05-04T10:50:27.028Z,16.32
2019-05-04T10:51:27.031Z,15.81
2019-05-04T10:52:27.006Z,15.38
2019-05-04T10:53:26.990Z,14.71
2019-05-04T10:54:26.977Z,14.64
2019-05-04T10:55:26.962Z,14.48
2019-05-04T10:56:26.955Z,14.31
2019-05-04T10:57:26.942Z,14.56
2019-05-04T10:58:26.933Z,15.03
2019-05-04T10:59:26.906Z,15.10
2019-05-04T11:00:26.901Z,14.99
2019-05-04T11:01:26.887Z,15.04
2019-05-04T11:02:26.914Z,15.04
2019-05-04T11:03:26.843Z,14.63
2019-05-04T11:04:26.828Z,14.05
2019-05-04T11:05:28.882Z,13.72
2019-05-04T11:06:26.797Z,13.85
2019-05-04T11:07:26.781Z,13.82
2019-05-04T11:08:26.769Z,13.73
2019-05-04T11:09:26.750Z,13.60
2019-05-04T11:10:26.736Z,13.17
2019-05-04T11:11:26.721Z,13.19
2019-05-04T11:12:26.708Z,12.99
2019-05-04T11:13:26.698Z,12.81
2019-05-04T11:14:26.674Z,12.61
2019-05-04T11:15:26.676Z,12.91
2019-05-04T11:16:26.647Z,13.02
2019-05-04T11:17:26.646Z,13.23
2019-05-04T11:18:26.616Z,13.67
2019-05-04T11:19:26.597Z,13.96
2019-05-04T11:20:26.582Z,14.15
2019-05-04T11:21:26.573Z,14.48
2019-05-04T11:22:26.552Z,14.99
2019-05-04T11:23:26.539Z,15.47
2019-05-04T11:24:26.525Z,15.76
2019-05-04T11:25:26.513Z,16.10
2019-05-04T11:26:26.493Z,15.87
2019-05-04T11:27:26.476Z,16.21
2019-05-04T11:28:26.471Z,16.43
2019-05-04T11:29:26.449Z,16.67
2019-05-04T11:30:28.348Z,16.88
2019-05-04T11:31:26.426Z,17.06
2019-05-04T11:32:26.409Z,17.06
2019-05-04T11:33:26.390Z,17.31
2019-05-04T11:34:26.371Z,17.35
2019-05-04T11:35:26.357Z,17.22
2019-05-04T11:36:26.345Z,17.01
2019-05-04T11:37:26.328Z,16.82
2019-05-04T11:38:26.314Z,17.04
2019-05-04T11:39:26.302Z,17.27
2019-05-04T11:40:26.955Z,17.13
2019-05-04T11:41:26.274Z,17.25
2019-05-04T11:42:26.265Z,17.28
2019-05-04T11:43:29.723Z,17.20
2019-05-04T11:44:27.795Z,16.99
2019-05-04T11:45:26.222Z,17.25
2019-05-04T11:46:26.205Z,17.47
2019-05-04T11:47:26.193Z,17.27
2019-05-04T11:48:26.175Z,17.47
2019-05-04T11:49:26.162Z,17.66
2019-05-04T11:50:26.154Z,17.65
2019-05-04T11:51:26.132Z,17.83
2019-05-04T11:52:26.118Z,17.57
2019-05-04T11:53:26.105Z,17.47
2019-05-04T11:54:26.091Z,17.46
2019-05-04T11:55:26.078Z,17.50
2019-05-04T11:56:26.066Z,17.49
2019-05-04T11:57:26.057Z,17.69
2019-05-04T11:58:26.039Z,17.49
2019-05-04T11:59:26.025Z,17.73
2019-05-04T12:00:26.018Z,17.90
2019-05-04T12:01:26.001Z,18.11
2019-05-04T12:02:25.991Z,17.88
2019-05-04T12:03:25.969Z,17.65
2019-05-04T12:04:25.959Z,17.49
2019-05-04T12:05:25.945Z,17.37
2019-05-04T12:06:25.930Z,16.83
2019-05-04T12:07:25.920Z,15.95
2019-05-04T12:08:25.908Z,15.25
2019-05-04T12:09:25.883Z,14.74
2019-05-04T12:10:25.884Z,14.28
2019-05-04T12:11:25.859Z,14.00
2019-05-04T12:12:25.855Z,13.83
2019-05-04T12:13:25.831Z,13.39
2019-05-04T12:14:25.814Z,13.23
2019-05-04T12:15:25.807Z,13.26
2019-05-04T12:16:25.803Z,13.45
2019-05-04T12:17:25.768Z,13.46
2019-05-04T12:18:25.866Z,13.21
2019-05-04T12:19:25.744Z,13.23
2019-05-04T12:20:25.728Z,13.17
2019-05-04T12:21:25.710Z,13.16
2019-05-04T12:22:25.694Z,13.01
2019-05-04T12:23:25.682Z,12.76
2019-05-04T12:24:25.667Z,12.71
2019-05-04T12:25:25.639Z,12.29
2019-05-04T12:26:25.628Z,12.11
2019-05-04T12:27:25.625Z,12.10
2019-05-04T12:28:25.593Z,11.84
2019-05-04T12:29:25.583Z,11.74
2019-05-04T12:30:25.567Z,11.73
2019-05-04T12:31:25.545Z,12.14
2019-05-04T12:32:25.542Z,12.58
2019-05-04T12:33:25.511Z,13.05
2019-05-04T12:34:25.493Z,13.36
2019-05-04T12:35:25.479Z,13.61
2019-05-04T12:36:25.462Z,13.93
2019-05-04T12:37:25.443Z,14.15
2019-05-04T12:38:25.438Z,14.53
2019-05-04T12:39:25.412Z,14.78
2019-05-04T12:40:25.397Z,15.11
2019-05-04T12:41:25.381Z,15.27
2019-05-04T12:42:25.368Z,15.44
2019-05-04T12:43:25.351Z,15.58
2019-05-04T12:44:25.342Z,15.51
2019-05-04T12:45:25.440Z,15.59
2019-05-04T12:46:25.303Z,15.68
2019-05-04T12:47:25.290Z,15.80
2019-05-04T12:48:25.277Z,15.85
2019-05-04T12:49:25.857Z,15.73
2019-05-04T12:50:25.245Z,15.66
2019-05-04T12:51:25.231Z,15.62
2019-05-04T12:52:25.464Z,15.77
2019-05-04T12:53:25.207Z,15.95
2019-05-04T12:54:25.183Z,16.25
2019-05-04T12:55:25.169Z,16.21
2019-05-04T12:56:25.159Z,16.17
2019-05-04T12:57:25.141Z,16.22
2019-05-04T12:58:25.136Z,16.33
2019-05-04T12:59:25.919Z,16.34
2019-05-04T13:00:25.673Z,15.95
2019-05-04T13:01:25.090Z,15.69
2019-05-04T13:02:25.343Z,15.73
2019-05-04T13:03:25.061Z,15.96
2019-05-04T13:04:25.038Z,16.06
2019-05-04T13:05:28.772Z,16.24
2019-05-04T13:06:25.006Z,16.22
2019-05-04T13:07:25.051Z,16.34